Time;durP1;ratioP1;P1;durP2;ratioP2;P2;SDS_P1;SDS_P2;PMS_P1;PMS_P2;Temp;Humidity;BMP_temperature;BMP_pressure;BME280_temperature;BME280_humidity;BME280_pressure;Samples;Min_cycle;Max_cycle;Signal;HPM_P1;HPM_P2
2023/10/17 00:01:34;;;;;;;5.10;3.17;;;5.90;96.20;;;;;;952200;146;27474;-79
2023/10/17 00:04:12;;;;;;;3.73;3.33;;;5.80;96.30;;;;;;950808;146;27307;-79
2023/10/17 00:06:27;;;;;;;7.00;3.97;;;5.80;96.30;;;;;;952567;146;27798;-80
2023/10/17 00:08:54;;;;;;;3.00;2.73;;;5.80;96.30;;;;;;949728;149;27313;-79
2023/10/17 00:11:29;;;;;;;3.20;3.00;;;5.80;96.30;;;;;;953317;149;27409;-79
2023/10/17 00:14:20;;;;;;;3.27;3.03;;;5.80;96.30;;;;;;952801;146;27346;-76
2023/10/17 00:16:21;;;;;;;3.50;3.20;;;5.70;96.20;;;;;;945642;146;27303;-79
2023/10/17 00:18:46;;;;;;;3.10;2.80;;;5.70;96.00;;;;;;939152;152;27327;-78
2023/10/17 00:21:22;;;;;;;4.47;3.03;;;5.70;96.00;;;;;;939744;149;29049;-80
2023/10/17 00:23:39;;;;;;;3.93;3.30;;;5.60;95.90;;;;;;929808;150;27311;-80
2023/10/17 00:26:08;;;;;;;3.33;3.00;;;5.50;95.80;;;;;;941201;149;27400;-77
2023/10/17 00:28:33;;;;;;;3.53;2.73;;;5.50;95.80;;;;;;940095;149;27366;-80
2023/10/17 00:30:59;;;;;;;3.23;2.93;;;5.50;95.90;;;;;;940873;149;27316;-79
2023/10/17 00:33:26;;;;;;;4.43;3.17;;;5.40;96.00;;;;;;926970;152;27333;-80
2023/10/17 00:35:54;;;;;;;3.13;2.77;;;5.40;96.20;;;;;;940439;150;27332;-79
2023/10/17 00:38:19;;;;;;;4.17;2.87;;;5.30;96.30;;;;;;939722;150;27321;-79
2023/10/17 00:43:12;;;;;;;3.13;2.83;;;5.30;96.40;;;;;;930463;152;27260;-79
2023/10/17 00:45:38;;;;;;;3.77;3.30;;;5.20;96.50;;;;;;940523;149;27370;-79
2023/10/17 00:48:08;;;;;;;5.97;2.87;;;5.20;96.70;;;;;;928096;151;27419;-76
2023/10/17 00:50:35;;;;;;;4.53;3.10;;;5.10;96.80;;;;;;939723;150;27513;-80
2023/10/17 00:53:01;;;;;;;3.10;2.90;;;5.10;96.90;;;;;;926254;151;27416;-79
2023/10/17 00:55:28;;;;;;;3.07;2.80;;;5.10;96.90;;;;;;923255;152;27409;-76
2023/10/17 00:57:54;;;;;;;3.87;3.47;;;5.00;96.90;;;;;;965048;144;27234;-76
2023/10/17 01:00:29;;;;;;;3.10;2.80;;;5.00;97.00;;;;;;965558;144;27243;-77
2023/10/17 01:02:51;;;;;;;4.07;3.40;;;5.00;96.90;;;;;;964359;144;27443;-77
2023/10/17 01:05:16;;;;;;;4.07;3.10;;;5.00;97.10;;;;;;924648;152;27430;-77
2023/10/17 01:07:43;;;;;;;3.40;3.10;;;4.90;97.00;;;;;;925258;151;27777;-76
2023/10/17 01:10:16;;;;;;;4.10;3.67;;;4.90;97.10;;;;;;920041;151;27475;-77
2023/10/17 01:12:52;;;;;;;4.60;2.90;;;4.90;97.10;;;;;;941120;149;27377;-77
2023/10/17 01:15:06;;;;;;;4.33;3.17;;;4.80;97.20;;;;;;939074;152;27330;-77
2023/10/17 01:17:35;;;;;;;3.30;2.97;;;4.80;97.10;;;;;;929412;149;27414;-77
2023/10/17 01:20:15;;;;;;;4.53;3.43;;;4.80;97.30;;;;;;940868;149;27375;-77
2023/10/17 01:22:25;;;;;;;3.20;2.90;;;4.80;97.40;;;;;;937147;150;27359;-77
2023/10/17 01:24:56;;;;;;;3.50;3.03;;;4.70;97.60;;;;;;940299;150;27400;-77
2023/10/17 01:27:18;;;;;;;3.93;3.47;;;4.70;97.70;;;;;;940755;150;27279;-77
2023/10/17 01:29:45;;;;;;;3.30;3.00;;;4.70;97.80;;;;;;939897;150;27750;-77
2023/10/17 01:32:12;;;;;;;3.07;2.77;;;4.70;97.90;;;;;;940207;150;27419;-77
2023/10/17 01:34:39;;;;;;;3.23;2.93;;;4.70;98.00;;;;;;940360;150;27385;-77
2023/10/17 01:37:07;;;;;;;5.53;2.70;;;4.70;97.90;;;;;;941443;150;27416;-77
2023/10/17 01:39:32;;;;;;;3.47;3.17;;;4.60;97.90;;;;;;940383;150;27444;-77
2023/10/17 01:41:59;;;;;;;3.17;2.90;;;4.60;97.80;;;;;;940156;150;27956;-77
2023/10/17 01:44:25;;;;;;;3.43;2.80;;;4.60;97.90;;;;;;940703;150;27363;-77
2023/10/17 01:46:52;;;;;;;2.83;2.63;;;4.50;97.90;;;;;;939225;150;27845;-77
2023/10/17 01:49:19;;;;;;;2.90;2.63;;;4.50;97.90;;;;;;940489;150;27437;-77
2023/10/17 01:51:48;;;;;;;5.50;2.97;;;4.50;97.90;;;;;;940829;150;27383;-77
2023/10/17 01:54:14;;;;;;;2.90;2.67;;;4.50;97.90;;;;;;940112;150;27387;-77
2023/10/17 01:56:40;;;;;;;2.63;2.43;;;4.50;98.00;;;;;;939917;150;27444;-77
2023/10/17 01:59:13;;;;;;;3.23;2.60;;;4.40;97.90;;;;;;940808;150;27405;-77
2023/10/17 02:01:36;;;;;;;4.17;2.70;;;4.40;98.00;;;;;;940633;150;27414;-77
2023/10/17 02:04:03;;;;;;;2.67;2.47;;;4.40;98.10;;;;;;940832;150;27347;-77
2023/10/17 02:06:30;;;;;;;2.93;2.73;;;4.40;98.60;;;;;;940404;150;27287;-80
2023/10/17 02:08:58;;;;;;;2.83;2.63;;;4.40;98.30;;;;;;940654;150;27455;-80
2023/10/17 02:11:26;;;;;;;3.37;2.80;;;4.40;98.30;;;;;;940618;150;27766;-79
2023/10/17 02:13:52;;;;;;;3.33;2.87;;;4.40;98.50;;;;;;940895;150;27361;-77
2023/10/17 02:16:18;;;;;;;3.13;2.77;;;4.40;98.50;;;;;;940005;150;27464;-74
2023/10/17 02:18:45;;;;;;;5.80;3.10;;;4.40;98.70;;;;;;940234;149;27494;-74
2023/10/17 02:21:12;;;;;;;3.10;2.53;;;4.40;98.60;;;;;;945860;149;27337;-76
2023/10/17 02:23:48;;;;;;;3.20;2.90;;;4.40;98.50;;;;;;946684;149;27408;-75
2023/10/17 02:26:10;;;;;;;4.03;2.83;;;4.30;98.40;;;;;;946279;149;27388;-75
2023/10/17 02:28:44;;;;;;;3.63;2.67;;;4.30;98.30;;;;;;945531;149;27465;-77
2023/10/17 02:31:00;;;;;;;2.90;2.70;;;4.30;98.40;;;;;;944958;149;27368;-74
2023/10/17 02:33:28;;;;;;;4.00;3.03;;;4.30;98.40;;;;;;946700;149;27370;-74
2023/10/17 02:36:08;;;;;;;2.77;2.47;;;4.30;98.50;;;;;;946740;149;27419;-74
2023/10/17 02:38:32;;;;;;;3.20;2.60;;;4.20;98.60;;;;;;946203;149;27533;-74
2023/10/17 02:40:59;;;;;;;2.60;2.37;;;4.20;98.80;;;;;;946507;149;27424;-75
2023/10/17 02:43:25;;;;;;;2.43;2.33;;;4.20;98.90;;;;;;947082;149;27478;-74
2023/10/17 02:45:53;;;;;;;3.77;2.83;;;4.20;99.00;;;;;;946195;149;27427;-76
2023/10/17 02:48:26;;;;;;;5.13;2.90;;;4.30;99.50;;;;;;946022;149;27480;-74
2023/10/17 02:50:58;;;;;;;3.23;2.93;;;4.20;99.70;;;;;;946499;149;27334;-74
2023/10/17 02:53:17;;;;;;;2.83;2.53;;;4.30;99.80;;;;;;946407;149;27342;-74
2023/10/17 02:55:44;;;;;;;3.57;2.70;;;4.30;99.90;;;;;;945106;149;27373;-74
2023/10/17 02:58:10;;;;;;;3.00;2.80;;;4.30;99.90;;;;;;947149;149;27377;-77
2023/10/17 03:00:37;;;;;;;3.10;2.80;;;4.40;99.90;;;;;;946752;149;27310;-74
2023/10/17 03:03:12;;;;;;;3.77;2.90;;;4.40;99.90;;;;;;946000;149;27317;-74
2023/10/17 03:05:39;;;;;;;4.33;3.57;;;4.50;99.90;;;;;;946713;149;27518;-77
2023/10/17 03:08:10;;;;;;;3.63;2.80;;;4.50;99.90;;;;;;920768;155;27383;-74
2023/10/17 03:10:39;;;;;;;3.93;2.60;;;4.60;99.90;;;;;;919001;153;27420;-74
2023/10/17 03:13:06;;;;;;;3.20;2.90;;;4.60;99.90;;;;;;920441;153;27368;-76
2023/10/17 03:15:34;;;;;;;3.07;2.47;;;4.60;99.90;;;;;;921771;153;27409;-74
2023/10/17 03:18:00;;;;;;;3.20;2.70;;;4.70;99.90;;;;;;919981;153;27556;-76
2023/10/17 03:20:42;;;;;;;3.00;2.70;;;4.70;99.90;;;;;;927177;149;27408;-76
2023/10/17 03:23:09;;;;;;;3.50;2.87;;;4.80;99.90;;;;;;973548;143;27286;-77
2023/10/17 03:25:37;;;;;;;4.70;2.70;;;4.80;99.90;;;;;;972606;143;27418;-76
2023/10/17 03:28:00;;;;;;;2.63;2.40;;;4.90;99.90;;;;;;971594;143;28668;-74
2023/10/17 03:30:25;;;;;;;3.33;3.03;;;4.90;99.90;;;;;;972574;143;27309;-74
2023/10/17 03:35:24;;;;;;;4.37;2.60;;;5.00;99.90;;;;;;973143;143;27509;-75
2023/10/17 03:37:51;;;;;;;3.37;3.07;;;5.00;99.90;;;;;;943014;149;27381;-75
2023/10/17 03:40:29;;;;;;;4.10;3.00;;;5.00;99.90;;;;;;945007;150;27321;-74
2023/10/17 03:42:45;;;;;;;2.93;2.70;;;5.10;99.90;;;;;;935515;150;27279;-74
2023/10/17 03:45:16;;;;;;;6.03;2.73;;;5.10;99.90;;;;;;953089;148;27349;-74
2023/10/17 03:47:40;;;;;;;3.23;2.97;;;5.10;99.90;;;;;;952139;147;27353;-74
2023/10/17 03:50:08;;;;;;;2.87;2.67;;;5.10;99.90;;;;;;953879;148;27345;-75
2023/10/17 03:52:33;;;;;;;3.07;2.87;;;5.10;99.90;;;;;;953389;147;27355;-74
2023/10/17 03:55:00;;;;;;;3.20;2.63;;;5.20;99.90;;;;;;952541;148;27269;-74
2023/10/17 03:59:54;;;;;;;2.83;2.60;;;5.20;99.90;;;;;;975858;145;37620;-78
2023/10/17 04:02:19;;;;;;;3.03;2.80;;;5.20;99.90;;;;;;965678;145;27275;-75
2023/10/17 04:04:53;;;;;;;4.50;3.03;;;5.30;99.90;;;;;;966870;145;27283;-76
2023/10/17 04:07:19;;;;;;;3.40;3.03;;;5.30;99.90;;;;;;966470;146;27315;-74
2023/10/17 04:10:17;;;;;;;2.87;2.60;;;5.30;99.90;;;;;;967550;145;27388;-74
2023/10/17 04:12:31;;;;;;;2.80;2.60;;;5.30;99.90;;;;;;962664;145;27913;-74
2023/10/17 04:14:59;;;;;;;3.63;3.20;;;5.30;99.90;;;;;;964112;146;27307;-75
2023/10/17 04:17:27;;;;;;;2.67;2.47;;;5.40;99.90;;;;;;961110;146;27349;-75
2023/10/17 04:19:48;;;;;;;5.23;2.97;;;5.40;99.90;;;;;;916020;155;27384;-74
2023/10/17 04:22:17;;;;;;;2.53;2.33;;;5.40;99.90;;;;;;960906;146;27402;-78
2023/10/17 04:24:46;;;;;;;2.87;2.67;;;5.30;99.90;;;;;;960794;146;27308;-75
2023/10/17 04:29:49;;;;;;;4.40;3.00;;;5.30;99.90;;;;;;960369;146;27268;-75
2023/10/17 04:32:13;;;;;;;2.77;2.57;;;5.30;99.90;;;;;;959695;146;27399;-75
2023/10/17 04:34:45;;;;;;;2.80;2.60;;;5.30;99.90;;;;;;959919;146;27334;-75
2023/10/17 04:37:05;;;;;;;2.70;2.50;;;5.30;99.90;;;;;;961689;146;27278;-80
2023/10/17 04:39:35;;;;;;;3.00;2.80;;;5.30;99.90;;;;;;960364;146;27391;-80
2023/10/17 04:47:25;;;;;;;4.83;3.30;;;5.30;99.90;;;;;;936914;146;27287;-80
2023/10/17 04:49:36;;;;;;;3.23;2.93;;;5.30;99.90;;;;;;957758;146;27263;-80
2023/10/17 04:52:09;;;;;;;2.87;2.67;;;5.30;99.90;;;;;;961409;146;27360;-80
2023/10/17 04:57:05;;;;;;;4.53;3.27;;;5.30;99.90;;;;;;960704;146;27350;-79
2023/10/17 06:18:18;;;;;;;7.13;2.80;;;5.30;99.90;;;;;;941589;145;27388;-74
2023/10/17 06:21:06;;;;;;;2.83;2.57;;;5.30;99.90;;;;;;965333;145;27275;-75
2023/10/17 06:23:23;;;;;;;3.10;2.80;;;5.40;99.90;;;;;;956833;145;27990;-74
2023/10/17 06:28:29;;;;;;;3.90;3.27;;;5.40;99.90;;;;;;965249;145;27940;-77
2023/10/17 06:33:42;;;;;;;3.60;3.30;;;5.50;99.90;;;;;;965320;145;27358;-75
2023/10/17 06:36:25;;;;;;;4.03;3.40;;;5.60;99.90;;;;;;964472;145;27838;-75
2023/10/17 06:38:47;;;;;;;4.30;3.67;;;5.70;99.90;;;;;;962587;145;27431;-74
2023/10/17 06:41:16;;;;;;;3.73;3.40;;;5.80;99.90;;;;;;964146;145;27338;-74
2023/10/17 06:43:46;;;;;;;3.23;2.97;;;5.80;99.90;;;;;;965152;145;27342;-75
2023/10/17 06:46:12;;;;;;;4.37;3.03;;;5.90;99.90;;;;;;964422;145;27470;-74
2023/10/17 06:48:48;;;;;;;4.37;3.90;;;6.00;99.90;;;;;;964720;145;27419;-74
2023/10/17 06:53:47;;;;;;;6.93;4.43;;;6.20;99.90;;;;;;952007;147;27402;-74
2023/10/17 06:56:14;;;;;;;5.23;4.43;;;6.30;99.90;;;;;;954313;147;27287;-79
2023/10/17 06:58:40;;;;;;;6.70;4.87;;;6.40;99.90;;;;;;952137;148;27417;-78
2023/10/17 07:01:19;;;;;;;4.60;4.20;;;6.50;99.90;;;;;;956889;145;27384;-77
2023/10/17 07:03:37;;;;;;;4.93;4.47;;;6.60;99.90;;;;;;950609;148;27361;-80
2023/10/17 07:06:16;;;;;;;4.77;4.37;;;6.70;99.90;;;;;;950081;148;27358;-80
2023/10/17 07:08:42;;;;;;;6.20;5.47;;;6.80;99.90;;;;;;949215;148;27441;-77
2023/10/17 07:14:26;;;;;;;5.77;5.17;;;7.10;99.90;;;;;;951593;148;27332;-79
2023/10/17 07:16:27;;;;;;;6.13;5.53;;;7.20;99.90;;;;;;941219;148;27472;-77
2023/10/17 07:18:52;;;;;;;6.03;5.07;;;7.40;99.90;;;;;;950704;148;27329;-78
2023/10/17 07:21:25;;;;;;;5.17;4.70;;;7.50;99.90;;;;;;948197;148;27369;-80
2023/10/17 07:23:54;;;;;;;5.37;4.40;;;7.70;99.90;;;;;;945881;148;27421;-79
2023/10/17 07:26:24;;;;;;;5.10;4.60;;;7.80;99.90;;;;;;944245;148;27474;-80
2023/10/17 07:28:44;;;;;;;6.57;4.83;;;8.00;99.90;;;;;;934834;149;27427;-75
2023/10/17 07:31:11;;;;;;;5.40;4.43;;;8.10;99.90;;;;;;950447;148;27330;-79
2023/10/17 07:33:38;;;;;;;4.30;3.90;;;8.30;99.90;;;;;;950212;148;27450;-76
2023/10/17 07:36:05;;;;;;;4.97;3.67;;;8.50;99.90;;;;;;935849;150;27342;-79
2023/10/17 07:38:31;;;;;;;5.37;3.67;;;8.60;99.90;;;;;;931807;150;27299;-79
2023/10/17 07:41:12;;;;;;;5.23;3.93;;;8.80;99.90;;;;;;952020;147;27965;-79
2023/10/17 07:43:30;;;;;;;4.60;3.50;;;9.00;99.90;;;;;;944887;148;28138;-78
2023/10/17 07:45:56;;;;;;;5.07;3.73;;;9.20;99.90;;;;;;942460;148;27724;-78
2023/10/17 07:48:25;;;;;;;6.20;3.20;;;9.50;99.90;;;;;;947386;148;27934;-78
2023/10/17 07:50:50;;;;;;;3.60;3.30;;;9.70;99.90;;;;;;945821;148;27675;-78
2023/10/17 07:53:19;;;;;;;4.03;3.73;;;9.80;99.90;;;;;;945630;148;27377;-78
2023/10/17 07:55:46;;;;;;;4.00;3.60;;;10.00;99.90;;;;;;944262;148;27420;-75
2023/10/17 07:58:09;;;;;;;4.30;3.90;;;10.20;99.90;;;;;;946763;148;27314;-75
2023/10/17 08:00:36;;;;;;;3.53;3.20;;;10.30;99.90;;;;;;946905;148;27525;-73
2023/10/17 08:03:07;;;;;;;4.63;3.40;;;10.50;99.90;;;;;;945069;148;27309;-73
2023/10/17 08:05:36;;;;;;;3.57;3.10;;;10.70;99.90;;;;;;925922;150;27383;-72
2023/10/17 08:08:08;;;;;;;4.67;3.50;;;10.80;99.90;;;;;;951761;147;27297;-75
2023/10/17 08:10:32;;;;;;;3.67;3.37;;;10.90;99.90;;;;;;932778;150;27321;-75
2023/10/17 08:13:01;;;;;;;3.80;3.50;;;11.00;99.90;;;;;;950081;146;27937;-76
2023/10/17 08:18:06;;;;;;;6.40;3.30;;;11.20;99.10;;;;;;924452;147;27398;-76
2023/10/17 08:21:07;;;;;;;4.93;3.23;;;11.30;98.30;;;;;;951807;147;27379;-75
2023/10/17 08:23:12;;;;;;;4.73;2.77;;;11.40;98.30;;;;;;929243;150;27409;-75
2023/10/17 08:25:59;;;;;;;3.00;2.73;;;11.50;98.40;;;;;;947178;148;27286;-75
2023/10/17 08:28:33;;;;;;;3.40;2.97;;;11.50;98.40;;;;;;926951;150;27432;-76
2023/10/17 08:33:57;;;;;;;2.40;2.20;;;11.80;97.90;;;;;;948414;148;27431;-76
2023/10/17 08:36:23;;;;;;;2.87;2.40;;;11.80;97.00;;;;;;946720;148;27851;-76
2023/10/17 08:38:47;;;;;;;3.37;2.60;;;11.90;96.60;;;;;;948208;148;27341;-75
2023/10/17 08:41:15;;;;;;;2.83;2.30;;;12.00;96.60;;;;;;946404;148;27857;-75
2023/10/17 08:43:41;;;;;;;2.40;2.20;;;12.10;96.50;;;;;;944498;148;27468;-75
2023/10/17 08:46:09;;;;;;;2.73;1.90;;;12.20;96.60;;;;;;950576;147;27352;-75
2023/10/17 08:48:32;;;;;;;3.03;2.20;;;12.30;96.40;;;;;;950473;147;27333;-75
2023/10/17 08:50:59;;;;;;;4.30;2.27;;;12.50;96.00;;;;;;941230;149;27508;-76
2023/10/17 08:53:25;;;;;;;2.43;2.20;;;12.50;95.80;;;;;;927761;150;27324;-76
2023/10/17 08:55:52;;;;;;;2.15;2.02;;;12.70;95.20;;;;;;927387;150;27488;-76
2023/10/17 08:58:24;;;;;;;2.70;2.17;;;12.70;94.80;;;;;;927622;150;27465;-76
2023/10/17 09:03:31;;;;;;;4.47;2.00;;;12.90;94.00;;;;;;972866;145;27283;-76
2023/10/17 09:05:58;;;;;;;2.23;2.07;;;13.00;93.60;;;;;;971297;145;27429;-76
2023/10/17 09:08:42;;;;;;;2.95;2.00;;;13.10;93.10;;;;;;972203;145;27313;-76
2023/10/17 09:10:54;;;;;;;3.30;2.33;;;13.20;92.80;;;;;;963635;145;27294;-76
2023/10/17 09:15:55;;;;;;;3.00;1.97;;;13.30;92.00;;;;;;965876;145;27366;-76
2023/10/17 09:18:28;;;;;;;2.60;2.13;;;13.40;91.60;;;;;;964858;145;27368;-76
2023/10/17 09:20:55;;;;;;;2.50;2.30;;;13.50;91.10;;;;;;966354;145;27346;-76
2023/10/17 09:23:22;;;;;;;4.77;2.37;;;13.60;90.30;;;;;;966237;145;27380;-76
2023/10/17 09:25:54;;;;;;;2.17;1.77;;;13.60;88.80;;;;;;965265;145;27345;-76
2023/10/17 09:28:22;;;;;;;2.85;2.00;;;13.70;87.80;;;;;;965033;145;27281;-76
2023/10/17 09:30:57;;;;;;;3.93;2.43;;;13.80;86.60;;;;;;953756;147;27328;-76
2023/10/17 09:33:31;;;;;;;3.60;2.17;;;13.80;86.10;;;;;;969969;145;27306;-76
2023/10/17 09:35:55;;;;;;;2.30;2.05;;;13.80;85.50;;;;;;967077;145;27336;-76
2023/10/17 09:38:21;;;;;;;2.47;1.90;;;13.80;85.00;;;;;;966417;145;27238;-76
2023/10/17 09:40:49;;;;;;;1.90;1.80;;;13.90;83.90;;;;;;966360;145;27303;-76
2023/10/17 09:43:14;;;;;;;2.67;1.95;;;13.90;82.60;;;;;;966122;145;27371;-76
2023/10/17 09:45:41;;;;;;;1.80;1.70;;;13.90;82.50;;;;;;966733;145;27330;-76
2023/10/17 09:48:08;;;;;;;3.85;1.85;;;13.90;81.80;;;;;;965458;145;27282;-76
2023/10/17 09:50:34;;;;;;;2.52;1.75;;;13.90;81.40;;;;;;966959;145;27464;-76
2023/10/17 09:53:01;;;;;;;6.58;2.10;;;13.90;80.90;;;;;;965529;145;28071;-76
2023/10/17 09:55:27;;;;;;;2.12;1.80;;;13.90;80.70;;;;;;965006;145;27423;-76
2023/10/17 09:57:54;;;;;;;2.30;1.70;;;13.90;80.30;;;;;;965413;145;27274;-76
2023/10/17 10:00:29;;;;;;;2.17;1.98;;;13.90;79.80;;;;;;969906;145;27314;-76
2023/10/17 10:02:56;;;;;;;3.45;2.02;;;14.00;80.70;;;;;;951000;148;27786;-76
2023/10/17 10:05:24;;;;;;;2.20;2.00;;;13.90;79.70;;;;;;970483;145;27325;-76
2023/10/17 10:07:49;;;;;;;2.20;2.00;;;14.00;79.60;;;;;;970929;145;27290;-76
2023/10/17 10:10:46;;;;;;;2.15;2.02;;;14.00;78.80;;;;;;969959;145;27336;-76
2023/10/17 10:13:19;;;;;;;2.40;1.93;;;14.00;78.30;;;;;;971798;145;27225;-76
2023/10/17 10:15:49;;;;;;;2.37;2.00;;;14.00;78.80;;;;;;954646;147;27352;-76
2023/10/17 10:18:16;;;;;;;1.85;1.72;;;14.00;78.00;;;;;;953105;147;27409;-76
2023/10/17 10:20:54;;;;;;;1.87;1.75;;;14.00;78.00;;;;;;954301;147;27261;-76
2023/10/17 10:23:20;;;;;;;2.35;1.85;;;14.00;77.40;;;;;;957245;147;27444;-76
2023/10/17 10:26:12;;;;;;;2.90;1.90;;;14.00;76.90;;;;;;954415;147;27394;-76
2023/10/17 10:28:38;;;;;;;4.00;2.25;;;14.00;76.60;;;;;;953386;147;27354;-82
2023/10/17 10:31:24;;;;;;;2.10;1.90;;;14.00;76.50;;;;;;950904;148;27368;-80
2023/10/17 10:33:49;;;;;;;2.20;2.00;;;14.00;76.10;;;;;;949132;148;27476;-81
2023/10/17 10:36:24;;;;;;;4.60;2.95;;;14.10;76.30;;;;;;953948;148;27270;-82
2023/10/17 10:38:53;;;;;;;3.52;2.70;;;14.10;76.10;;;;;;967507;145;27396;-81
2023/10/17 10:41:18;;;;;;;2.10;1.87;;;14.00;76.10;;;;;;964254;145;27431;-82
2023/10/17 10:43:44;;;;;;;2.30;1.92;;;14.10;75.80;;;;;;964121;145;27346;-81
2023/10/17 10:46:17;;;;;;;2.87;2.05;;;14.10;75.40;;;;;;964993;145;27304;-82
2023/10/17 10:48:46;;;;;;;1.70;1.60;;;14.10;75.30;;;;;;964465;145;27641;-78
2023/10/17 10:51:15;;;;;;;2.00;1.90;;;14.10;75.40;;;;;;963657;145;27353;-80
2023/10/17 10:53:44;;;;;;;2.35;2.15;;;14.20;75.00;;;;;;964616;145;27254;-81
2023/10/17 10:56:13;;;;;;;2.35;2.10;;;14.20;74.90;;;;;;965148;145;27310;-81
2023/10/17 10:58:51;;;;;;;2.35;2.00;;;14.20;74.90;;;;;;965469;145;27334;-82
2023/10/17 11:01:14;;;;;;;2.62;1.92;;;14.20;74.90;;;;;;962243;145;27290;-82
2023/10/17 11:03:44;;;;;;;2.20;1.95;;;14.20;74.70;;;;;;958053;145;27406;-74
2023/10/17 11:06:10;;;;;;;1.72;1.62;;;14.30;74.60;;;;;;954526;147;27373;-79
2023/10/17 11:08:41;;;;;;;2.00;1.85;;;14.40;74.30;;;;;;955834;147;27259;-82
2023/10/17 11:11:05;;;;;;;1.80;1.70;;;14.40;74.10;;;;;;955456;147;27431;-82
2023/10/17 11:13:32;;;;;;;2.33;1.80;;;14.40;73.90;;;;;;955288;147;27384;-82
2023/10/17 11:15:59;;;;;;;1.52;1.42;;;14.50;73.80;;;;;;955299;147;27729;-82
2023/10/17 11:18:25;;;;;;;1.67;1.55;;;14.50;73.60;;;;;;955401;147;27354;-82
2023/10/17 11:20:55;;;;;;;1.85;1.67;;;14.60;73.40;;;;;;955720;147;28511;-82
2023/10/17 11:23:26;;;;;;;1.87;1.60;;;14.60;73.40;;;;;;955679;147;27358;-83
2023/10/17 11:25:48;;;;;;;2.58;1.50;;;14.60;73.20;;;;;;955847;147;27375;-77
2023/10/17 11:28:16;;;;;;;2.25;1.60;;;14.70;72.70;;;;;;953931;147;28336;-76
2023/10/17 11:30:42;;;;;;;2.60;1.72;;;14.70;72.70;;;;;;955129;147;27320;-76
2023/10/17 11:35:54;;;;;;;2.92;1.62;;;14.80;72.40;;;;;;939387;147;27362;-76
2023/10/17 11:38:40;;;;;;;3.05;1.80;;;14.80;71.90;;;;;;955121;147;27264;-76
2023/10/17 11:41:05;;;;;;;1.62;1.52;;;14.80;71.40;;;;;;953460;147;27660;-76
2023/10/17 11:43:34;;;;;;;1.65;1.52;;;14.80;71.30;;;;;;956397;147;27304;-76
2023/10/17 11:46:01;;;;;;;2.17;1.90;;;14.80;70.70;;;;;;954553;147;27228;-76
2023/10/17 11:48:28;;;;;;;1.82;1.72;;;14.60;70.70;;;;;;955805;147;27288;-76
2023/10/17 11:51:06;;;;;;;1.70;1.60;;;14.60;70.40;;;;;;955632;147;27337;-76
2023/10/17 11:53:37;;;;;;;1.90;1.73;;;14.40;70.30;;;;;;956022;147;27759;-76
2023/10/17 11:56:02;;;;;;;1.50;1.40;;;14.30;70.30;;;;;;954895;147;27357;-76
2023/10/17 11:58:33;;;;;;;1.72;1.60;;;14.20;70.00;;;;;;954646;147;27343;-76
2023/10/17 12:00:59;;;;;;;2.90;1.70;;;14.10;70.30;;;;;;954328;147;27326;-76
2023/10/17 12:03:26;;;;;;;1.87;1.77;;;14.00;70.40;;;;;;953406;147;27323;-76
2023/10/17 12:05:51;;;;;;;2.23;1.63;;;13.90;70.60;;;;;;953058;147;27431;-76
2023/10/17 12:08:29;;;;;;;1.67;1.57;;;13.80;71.00;;;;;;955245;147;27745;-76
2023/10/17 12:10:50;;;;;;;1.70;1.60;;;13.70;71.10;;;;;;954157;147;27351;-76
2023/10/17 12:13:17;;;;;;;1.80;1.70;;;13.70;71.30;;;;;;956620;147;27352;-76
2023/10/17 12:15:44;;;;;;;2.17;1.55;;;13.70;71.40;;;;;;953947;147;27334;-76
2023/10/17 12:18:10;;;;;;;2.27;1.80;;;13.60;71.50;;;;;;955174;147;27296;-75
2023/10/17 12:20:42;;;;;;;2.03;1.93;;;13.60;71.60;;;;;;954855;146;27305;-76
2023/10/17 12:23:12;;;;;;;2.13;1.93;;;13.60;71.40;;;;;;954983;147;27346;-75
2023/10/17 12:25:42;;;;;;;2.22;1.60;;;13.60;71.50;;;;;;954656;147;27388;-75
2023/10/17 12:28:06;;;;;;;1.60;1.50;;;13.60;71.40;;;;;;954453;147;27256;-76
2023/10/17 12:30:35;;;;;;;2.30;1.50;;;13.70;71.60;;;;;;955105;147;27233;-76
2023/10/17 12:32:58;;;;;;;1.67;1.50;;;13.60;71.50;;;;;;954617;147;28149;-76
2023/10/17 12:35:27;;;;;;;1.80;1.70;;;13.70;71.60;;;;;;952635;147;27275;-76
2023/10/17 12:37:52;;;;;;;2.47;1.80;;;13.70;71.60;;;;;;954481;147;27341;-75
2023/10/17 12:40:23;;;;;;;1.70;1.60;;;13.70;71.60;;;;;;955021;147;27354;-75
2023/10/17 12:42:55;;;;;;;4.28;1.80;;;13.70;71.60;;;;;;954588;147;27339;-75
2023/10/17 12:45:19;;;;;;;1.93;1.73;;;13.70;71.60;;;;;;953940;147;27262;-75
2023/10/17 12:47:47;;;;;;;1.62;1.45;;;13.70;71.60;;;;;;952663;147;27434;-76
2023/10/17 12:50:13;;;;;;;1.57;1.47;;;13.80;71.60;;;;;;955258;147;28048;-75
2023/10/17 12:52:39;;;;;;;1.70;1.60;;;13.80;71.60;;;;;;951717;147;27424;-75
2023/10/17 12:55:07;;;;;;;1.45;1.35;;;13.80;71.60;;;;;;954264;147;27351;-75
2023/10/17 12:57:32;;;;;;;1.93;1.60;;;13.90;71.50;;;;;;951946;147;27609;-75
2023/10/17 12:59:59;;;;;;;3.17;1.73;;;13.90;71.60;;;;;;951705;147;28455;-76
2023/10/17 13:02:29;;;;;;;4.30;2.72;;;13.90;71.50;;;;;;952937;147;27423;-75
2023/10/17 13:04:52;;;;;;;2.63;2.20;;;14.00;71.70;;;;;;966512;145;27374;-75
2023/10/17 13:07:20;;;;;;;1.97;1.80;;;14.00;71.70;;;;;;971605;145;27278;-75
2023/10/17 13:09:45;;;;;;;1.82;1.52;;;14.00;71.60;;;;;;952717;147;27387;-75
2023/10/17 13:12:14;;;;;;;3.15;2.08;;;14.00;71.60;;;;;;969259;145;27333;-75
2023/10/17 13:14:38;;;;;;;2.57;1.63;;;14.10;71.60;;;;;;968302;145;27459;-75
2023/10/17 13:17:09;;;;;;;2.15;1.95;;;14.10;71.30;;;;;;969422;145;27412;-75
2023/10/17 13:19:39;;;;;;;2.15;1.77;;;14.10;71.30;;;;;;955235;147;27310;-75
2023/10/17 13:21:59;;;;;;;2.40;1.77;;;14.10;71.30;;;;;;971372;145;27398;-75
2023/10/17 13:24:26;;;;;;;4.72;1.75;;;14.20;71.20;;;;;;972655;145;27277;-75
2023/10/17 13:26:52;;;;;;;3.02;1.60;;;14.20;71.00;;;;;;972307;145;27390;-75
2023/10/17 13:29:18;;;;;;;2.17;1.70;;;14.30;71.00;;;;;;953193;148;27468;-76
2023/10/17 13:31:45;;;;;;;1.52;1.42;;;14.30;71.60;;;;;;953889;147;28634;-75
2023/10/17 13:34:11;;;;;;;3.63;1.80;;;14.30;70.80;;;;;;966570;145;27366;-75
2023/10/17 13:36:38;;;;;;;1.70;1.60;;;14.30;70.50;;;;;;965652;145;27339;-75
2023/10/17 13:39:05;;;;;;;2.33;1.82;;;14.30;70.50;;;;;;949694;148;27450;-75
2023/10/17 13:41:31;;;;;;;1.93;1.80;;;14.30;70.20;;;;;;957078;147;27336;-75
2023/10/17 13:43:58;;;;;;;2.30;2.10;;;14.40;70.20;;;;;;952976;147;27358;-75
2023/10/17 13:46:24;;;;;;;2.90;1.80;;;14.40;69.90;;;;;;969479;145;28573;-75
2023/10/17 13:48:51;;;;;;;1.82;1.67;;;14.40;69.90;;;;;;971304;145;28289;-75
2023/10/17 13:51:17;;;;;;;1.85;1.60;;;14.40;69.90;;;;;;953310;147;27461;-75
2023/10/17 13:53:44;;;;;;;2.02;1.82;;;14.50;69.90;;;;;;953938;147;27482;-75
2023/10/17 13:56:13;;;;;;;1.80;1.50;;;14.50;69.80;;;;;;953926;147;27355;-75
2023/10/17 13:58:41;;;;;;;2.70;1.62;;;14.50;69.60;;;;;;969550;145;27371;-75
2023/10/17 14:03:51;;;;;;;1.80;1.55;;;14.50;69.10;;;;;;966192;145;27354;-73
2023/10/17 14:06:18;;;;;;;1.65;1.55;;;14.50;69.10;;;;;;951238;147;27355;-74
2023/10/17 14:08:45;;;;;;;1.95;1.85;;;14.60;69.10;;;;;;953811;146;27310;-74
2023/10/17 14:11:17;;;;;;;2.65;2.45;;;14.60;68.90;;;;;;949356;146;27798;-72
2023/10/17 14:13:38;;;;;;;4.00;3.52;;;14.60;68.90;;;;;;949079;146;27412;-77
2023/10/17 14:16:04;;;;;;;4.20;2.37;;;14.60;68.80;;;;;;949864;146;27381;-73
2023/10/17 14:18:40;;;;;;;1.92;1.80;;;14.60;68.60;;;;;;950187;146;27344;-73
2023/10/17 14:23:45;;;;;;;2.52;1.60;;;14.70;68.30;;;;;;934282;147;27317;-76
2023/10/17 14:26:09;;;;;;;1.57;1.47;;;14.70;68.30;;;;;;948654;148;27392;-73
2023/10/17 14:28:32;;;;;;;2.03;1.40;;;14.80;68.30;;;;;;949280;148;27348;-73
2023/10/17 14:30:58;;;;;;;2.22;1.37;;;14.80;68.00;;;;;;950553;148;27392;-73
2023/10/17 14:33:25;;;;;;;2.25;1.70;;;14.80;68.00;;;;;;950685;148;27386;-73
2023/10/17 14:35:51;;;;;;;2.42;1.27;;;14.80;67.80;;;;;;949496;148;27348;-74
2023/10/17 14:38:18;;;;;;;1.40;1.30;;;14.80;67.50;;;;;;951956;148;27297;-73
2023/10/17 14:40:45;;;;;;;1.57;1.40;;;14.80;67.20;;;;;;949417;148;27476;-73
2023/10/17 14:43:14;;;;;;;1.55;1.45;;;14.80;67.20;;;;;;948227;148;27308;-76
2023/10/17 14:45:38;;;;;;;2.35;1.57;;;14.80;66.90;;;;;;947893;148;27309;-73
2023/10/17 14:48:05;;;;;;;1.50;1.40;;;14.80;66.90;;;;;;948933;148;27274;-74
2023/10/17 14:50:33;;;;;;;1.40;1.30;;;14.90;67.30;;;;;;948891;148;27372;-72
2023/10/17 14:53:01;;;;;;;1.50;1.40;;;14.80;66.90;;;;;;934216;150;27506;-73
2023/10/17 14:55:27;;;;;;;6.42;1.45;;;14.90;66.00;;;;;;949358;147;27322;-76
2023/10/17 14:57:53;;;;;;;2.40;1.10;;;14.90;66.70;;;;;;934612;150;27350;-81
2023/10/17 15:00:20;;;;;;;1.00;1.00;;;14.90;66.40;;;;;;946716;148;27687;-81